Airfield :
LOGIN :

Register | Disclaimer

   EN    FR    IT 

 










Legend :    VFR   Marginal VFR   IFR   Intensive IFR   Very Intensive IFR
Visi :
Ceiling :
>= 8 km
>= 3000ft
5 to 8 km
1000 to 3000 ft
1500m to 5 km
500 to 1000 ft
800 to 1500m
200 to 500 ft
< 800m
< 200 ft
Symbols :   Thunderstorms  Fog  Heavy snow  Heavy precipitations  Wind > 20 kt
SIGMETs :     Misc.  Thunderstorms  Icing  Turbulence  Mountain Waves  Volcanic Ashes






- Airport Elevation : 55 ft
- IATA code : DSA


EGCN - Robin Hood Doncaster Sheffield

CURRENT METAR :
  • 251550Z 18006KT 9999 BKN028 BKN034 06/04 Q1015

EXPIRED METARs :
  • 251520Z 17007KT 9999 BKN024 06/03 Q1016
  • 251450Z 21006KT 9999 BKN025 06/03 Q1016
  • 251420Z 22009KT 9999 BKN017 BKN023 06/03 Q1016
  • 251350Z 22009KT 9999 BKN015 06/03 Q1017
  • 251320Z 22008KT 9999 BKN016 06/03 Q1017

TAF TAF EGCN
Valid from the 25 at 12:00 until the 26 at 12:00 UTC


251057Z 2512/2612 19008KT 9999 BKN020
BECMG 2517/2520 6000 BKN010
TEMPO 2519/2606 3000 -DZ BKN006
PROB40
TEMPO 2519/2606 1200 DZ BKN003
BECMG 2606/2609 9999 NSW FEW012
TEMPO 2610/2612 7000 RA
PROB30
TEMPO 2610/2612 BKN014



MET'MAP, your aeronautical weather chart ! - Copyright ORBIFLY December 2007 - Disclaimer

ORBIFLY MET'MAP TEAM :

Programming & Development : Alexandra Zaïnal
Concept & original design : Baudouin d'Aumeries
Assistance for programming : Marc-Olivier Méhu
Technical & hardware support : Manuel Goepfert

Contact : metmap@orbifly.com




SOURCES & CREDITS :

   NOAA